sensor_id;sensor_type;location;lat;lon;timestamp;pressure;altitude;pressure_sealevel;temperature;humidity
58092;BME280;43896;48.178;11.578;2023-08-31T00:02:27;95343.47;;;16.27;64.16
58092;BME280;43896;48.178;11.578;2023-08-31T00:05:18;95336.97;;;16.16;64.18
58092;BME280;43896;48.178;11.578;2023-08-31T00:07:52;95341.63;;;16.21;64.41
58092;BME280;43896;48.178;11.578;2023-08-31T00:10:23;95341.44;;;16.29;63.93
58092;BME280;43896;48.178;11.578;2023-08-31T00:13:02;95339.19;;;16.33;63.90
58092;BME280;43896;48.178;11.578;2023-08-31T00:15:56;95343.28;;;16.35;63.43
58092;BME280;43896;48.178;11.578;2023-08-31T00:18:31;95343.69;;;16.32;63.70
58092;BME280;43896;48.178;11.578;2023-08-31T00:21:10;95335.72;;;16.32;63.91
58092;BME280;43896;48.178;11.578;2023-08-31T00:24:01;95349.41;;;16.29;63.85
58092;BME280;43896;48.178;11.578;2023-08-31T00:26:37;95349.00;;;16.25;64.13
58092;BME280;43896;48.178;11.578;2023-08-31T00:29:17;95350.03;;;16.04;64.50
58092;BME280;43896;48.178;11.578;2023-08-31T00:32:12;95349.00;;;16.19;64.74
58092;BME280;43896;48.178;11.578;2023-08-31T00:34:41;95348.78;;;16.20;64.46
58092;BME280;43896;48.178;11.578;2023-08-31T00:37:11;95353.09;;;16.15;64.67
58092;BME280;43896;48.178;11.578;2023-08-31T00:39:42;95345.53;;;16.11;63.98
58092;BME280;43896;48.178;11.578;2023-08-31T00:42:21;95355.34;;;16.11;64.12
58092;BME280;43896;48.178;11.578;2023-08-31T00:45:02;95353.28;;;16.06;64.16
58092;BME280;43896;48.178;11.578;2023-08-31T00:50:59;95355.91;;;15.86;64.87
58092;BME280;43896;48.178;11.578;2023-08-31T00:53:26;95360.63;;;15.98;64.29
58092;BME280;43896;48.178;11.578;2023-08-31T00:56:03;95358.78;;;15.98;64.08
58092;BME280;43896;48.178;11.578;2023-08-31T01:17:10;95350.22;;;15.96;63.88
58092;BME280;43896;48.178;11.578;2023-08-31T01:20:02;95352.34;;;15.32;66.07
58092;BME280;43896;48.178;11.578;2023-08-31T01:25:34;95340.81;;;15.73;64.99
58092;BME280;43896;48.178;11.578;2023-08-31T01:28:11;95345.31;;;15.80;64.35
58092;BME280;43896;48.178;11.578;2023-08-31T01:33:46;95353.66;;;15.83;64.24
58092;BME280;43896;48.178;11.578;2023-08-31T01:42:31;95348.38;;;15.90;64.21
58092;BME280;43896;48.178;11.578;2023-08-31T01:45:32;95362.28;;;15.92;64.37
58092;BME280;43896;48.178;11.578;2023-08-31T01:48:29;95354.31;;;15.79;65.09
58092;BME280;43896;48.178;11.578;2023-08-31T01:51:25;95356.75;;;15.87;64.61
58092;BME280;43896;48.178;11.578;2023-08-31T01:54:03;95352.06;;;15.89;63.98
58092;BME280;43896;48.178;11.578;2023-08-31T01:56:40;95358.38;;;15.88;64.46
58092;BME280;43896;48.178;11.578;2023-08-31T02:03:25;95368.19;;;16.01;63.45
58092;BME280;43896;48.178;11.578;2023-08-31T02:11:54;95386.25;;;15.70;66.13
58092;BME280;43896;48.178;11.578;2023-08-31T02:23:48;95402.44;;;15.89;64.70
58092;BME280;43896;48.178;11.578;2023-08-31T02:26:36;95416.72;;;14.85;69.36
58092;BME280;43896;48.178;11.578;2023-08-31T02:29:30;95425.47;;;14.29;71.94
58092;BME280;43896;48.178;11.578;2023-08-31T02:32:27;95437.13;;;14.62;71.63
58092;BME280;43896;48.178;11.578;2023-08-31T02:38:29;95440.97;;;15.30;69.16
58092;BME280;43896;48.178;11.578;2023-08-31T02:44:00;95459.94;;;15.27;71.32
58092;BME280;43896;48.178;11.578;2023-08-31T02:59:33;95441.25;;;15.00;75.50
58092;BME280;43896;48.178;11.578;2023-08-31T03:02:29;95448.72;;;14.90;77.26
58092;BME280;43896;48.178;11.578;2023-08-31T03:05:06;95444.44;;;14.89;76.83
58092;BME280;43896;48.178;11.578;2023-08-31T03:07:59;95444.50;;;14.45;79.09
58092;BME280;43896;48.178;11.578;2023-08-31T03:11:11;95440.00;;;14.96;76.54
58092;BME280;43896;48.178;11.578;2023-08-31T03:20:07;95437.44;;;15.16;74.78
58092;BME280;43896;48.178;11.578;2023-08-31T03:29:05;95446.31;;;14.95;76.62
58092;BME280;43896;48.178;11.578;2023-08-31T03:34:59;95450.66;;;15.09;75.70
58092;BME280;43896;48.178;11.578;2023-08-31T03:41:24;95462.56;;;14.92;77.82
58092;BME280;43896;48.178;11.578;2023-08-31T03:44:05;95453.06;;;15.04;76.71
58092;BME280;43896;48.178;11.578;2023-08-31T03:56:02;95475.97;;;15.18;75.59
58092;BME280;43896;48.178;11.578;2023-08-31T03:58:45;95473.41;;;14.97;77.33
58092;BME280;43896;48.178;11.578;2023-08-31T04:05:03;95480.47;;;15.18;75.75
58092;BME280;43896;48.178;11.578;2023-08-31T04:23:18;95495.09;;;15.14;75.70
58092;BME280;43896;48.178;11.578;2023-08-31T04:32:25;95505.59;;;15.00;76.76
58092;BME280;43896;48.178;11.578;2023-08-31T04:35:23;95508.91;;;15.09;75.61
58092;BME280;43896;48.178;11.578;2023-08-31T04:38:14;95506.50;;;15.14;75.35
58092;BME280;43896;48.178;11.578;2023-08-31T04:43:43;95521.66;;;14.92;76.30
58092;BME280;43896;48.178;11.578;2023-08-31T04:46:32;95526.34;;;14.97;76.72
58092;BME280;43896;48.178;11.578;2023-08-31T04:52:15;95532.59;;;14.82;77.41
58092;BME280;43896;48.178;11.578;2023-08-31T04:54:40;95542.69;;;15.00;76.27
58092;BME280;43896;48.178;11.578;2023-08-31T04:57:05;95536.84;;;15.12;75.72
58092;BME280;43896;48.178;11.578;2023-08-31T04:59:32;95539.88;;;15.09;75.86
58092;BME280;43896;48.178;11.578;2023-08-31T05:01:57;95535.56;;;15.01;77.05
58092;BME280;43896;48.178;11.578;2023-08-31T05:04:22;95537.81;;;15.04;76.80
58092;BME280;43896;48.178;11.578;2023-08-31T05:06:48;95548.75;;;14.94;77.29
58092;BME280;43896;48.178;11.578;2023-08-31T05:09:13;95557.63;;;15.08;76.80
58092;BME280;43896;48.178;11.578;2023-08-31T05:11:39;95553.38;;;15.14;75.78
58092;BME280;43896;48.178;11.578;2023-08-31T05:14:04;95539.66;;;14.75;77.26
58092;BME280;43896;48.178;11.578;2023-08-31T05:16:29;95544.66;;;14.92;77.98
58092;BME280;43896;48.178;11.578;2023-08-31T05:18:54;95550.28;;;15.10;76.58
58092;BME280;43896;48.178;11.578;2023-08-31T05:21:20;95551.78;;;15.19;75.99
58092;BME280;43896;48.178;11.578;2023-08-31T05:23:45;95549.34;;;15.25;75.59
58092;BME280;43896;48.178;11.578;2023-08-31T05:26:10;95543.81;;;15.19;75.68
58092;BME280;43896;48.178;11.578;2023-08-31T05:28:36;95564.28;;;15.32;74.99
58092;BME280;43896;48.178;11.578;2023-08-31T05:31:01;95562.84;;;15.30;75.66
58092;BME280;43896;48.178;11.578;2023-08-31T05:33:28;95572.06;;;15.34;75.16
58092;BME280;43896;48.178;11.578;2023-08-31T05:35:54;95566.94;;;15.32;74.72
58092;BME280;43896;48.178;11.578;2023-08-31T05:38:20;95553.31;;;15.35;74.35
58092;BME280;43896;48.178;11.578;2023-08-31T05:40:45;95563.88;;;15.29;74.66
58092;BME280;43896;48.178;11.578;2023-08-31T05:43:14;95569.84;;;15.37;73.63
58092;BME280;43896;48.178;11.578;2023-08-31T05:45:39;95576.41;;;15.13;75.44
58092;BME280;43896;48.178;11.578;2023-08-31T05:48:05;95581.38;;;15.30;74.97
58092;BME280;43896;48.178;11.578;2023-08-31T05:50:30;95575.38;;;15.43;74.43
58092;BME280;43896;48.178;11.578;2023-08-31T05:52:56;95577.22;;;15.42;73.91
58092;BME280;43896;48.178;11.578;2023-08-31T05:55:21;95583.13;;;15.44;74.12
58092;BME280;43896;48.178;11.578;2023-08-31T05:57:46;95583.75;;;15.46;73.46
58092;BME280;43896;48.178;11.578;2023-08-31T06:00:12;95584.78;;;15.52;74.17
58092;BME280;43896;48.178;11.578;2023-08-31T06:02:37;95584.59;;;15.53;72.78
58092;BME280;43896;48.178;11.578;2023-08-31T06:05:02;95587.06;;;15.55;72.69
58092;BME280;43896;48.178;11.578;2023-08-31T06:07:29;95588.69;;;15.56;73.45
58092;BME280;43896;48.178;11.578;2023-08-31T06:09:55;95596.22;;;15.52;73.36
58092;BME280;43896;48.178;11.578;2023-08-31T06:12:20;95599.91;;;15.23;74.70
58092;BME280;43896;48.178;11.578;2023-08-31T06:14:45;95603.56;;;15.22;75.90
58092;BME280;43896;48.178;11.578;2023-08-31T06:17:10;95602.91;;;14.92;76.84
58092;BME280;43896;48.178;11.578;2023-08-31T06:19:38;95614.91;;;15.16;76.59
58092;BME280;43896;48.178;11.578;2023-08-31T06:22:03;95603.25;;;15.38;74.57
58092;BME280;43896;48.178;11.578;2023-08-31T06:24:28;95607.59;;;15.46;73.84
58092;BME280;43896;48.178;11.578;2023-08-31T06:26:53;95610.56;;;15.36;74.91
58092;BME280;43896;48.178;11.578;2023-08-31T06:29:20;95604.38;;;15.51;73.95
58092;BME280;43896;48.178;11.578;2023-08-31T06:31:45;95610.53;;;14.80;76.96
58092;BME280;43896;48.178;11.578;2023-08-31T06:34:10;95604.41;;;15.29;75.93
58092;BME280;43896;48.178;11.578;2023-08-31T06:36:35;95605.59;;;15.55;74.24
58092;BME280;43896;48.178;11.578;2023-08-31T06:39:01;95611.94;;;15.61;73.24
58092;BME280;43896;48.178;11.578;2023-08-31T06:41:26;95619.75;;;15.69;73.31
58092;BME280;43896;48.178;11.578;2023-08-31T06:43:51;95619.94;;;15.32;74.87
58092;BME280;43896;48.178;11.578;2023-08-31T06:46:16;95605.94;;;15.45;72.83
58092;BME280;43896;48.178;11.578;2023-08-31T06:48:42;95625.47;;;15.72;73.03
58092;BME280;43896;48.178;11.578;2023-08-31T06:51:07;95625.56;;;15.79;72.37
58092;BME280;43896;48.178;11.578;2023-08-31T06:53:32;95627.78;;;15.47;75.17
58092;BME280;43896;48.178;11.578;2023-08-31T06:55:57;95628.69;;;15.05;75.60
58092;BME280;43896;48.178;11.578;2023-08-31T06:58:22;95628.06;;;15.59;73.55
58092;BME280;43896;48.178;11.578;2023-08-31T07:00:48;95624.69;;;15.44;74.04
58092;BME280;43896;48.178;11.578;2023-08-31T07:03:13;95629.56;;;15.68;73.26
58092;BME280;43896;48.178;11.578;2023-08-31T07:05:41;95641.50;;;15.86;72.99
58092;BME280;43896;48.178;11.578;2023-08-31T07:08:06;95645.97;;;15.79;74.52
58092;BME280;43896;48.178;11.578;2023-08-31T07:10:32;95636.03;;;15.94;72.95
58092;BME280;43896;48.178;11.578;2023-08-31T07:12:57;95646.09;;;16.05;72.52
58092;BME280;43896;48.178;11.578;2023-08-31T07:15:22;95644.31;;;16.12;73.74
58092;BME280;43896;48.178;11.578;2023-08-31T07:17:47;95643.66;;;15.41;75.38
58092;BME280;43896;48.178;11.578;2023-08-31T07:20:13;95644.19;;;15.92;73.45
58092;BME280;43896;48.178;11.578;2023-08-31T07:22:38;95643.19;;;15.65;73.24
58092;BME280;43896;48.178;11.578;2023-08-31T07:25:05;95647.34;;;16.09;71.42
58092;BME280;43896;48.178;11.578;2023-08-31T07:27:31;95645.84;;;15.65;72.10
58092;BME280;43896;48.178;11.578;2023-08-31T07:29:56;95645.34;;;16.18;70.47
58092;BME280;43896;48.178;11.578;2023-08-31T07:32:21;95656.78;;;16.25;70.34
58092;BME280;43896;48.178;11.578;2023-08-31T07:34:47;95650.94;;;16.37;70.07
58092;BME280;43896;48.178;11.578;2023-08-31T07:37:12;95660.94;;;16.41;69.72
58092;BME280;43896;48.178;11.578;2023-08-31T07:39:38;95671.16;;;16.44;69.66
58092;BME280;43896;48.178;11.578;2023-08-31T07:42:04;95669.94;;;16.47;68.76
58092;BME280;43896;48.178;11.578;2023-08-31T07:44:30;95678.41;;;16.22;67.11
58092;BME280;43896;48.178;11.578;2023-08-31T07:46:55;95675.00;;;16.35;67.78
58092;BME280;43896;48.178;11.578;2023-08-31T07:49:20;95677.88;;;16.40;67.92
58092;BME280;43896;48.178;11.578;2023-08-31T07:51:45;95684.25;;;16.04;69.40
58092;BME280;43896;48.178;11.578;2023-08-31T07:54:11;95677.63;;;16.28;67.58
58092;BME280;43896;48.178;11.578;2023-08-31T07:56:36;95676.44;;;16.38;67.77
58092;BME280;43896;48.178;11.578;2023-08-31T07:59:01;95667.72;;;16.50;68.41
58092;BME280;43896;48.178;11.578;2023-08-31T08:01:27;95670.59;;;16.56;69.37
58092;BME280;43896;48.178;11.578;2023-08-31T08:03:52;95671.44;;;16.15;71.19
58092;BME280;43896;48.178;11.578;2023-08-31T08:06:17;95667.22;;;16.27;68.57
58092;BME280;43896;48.178;11.578;2023-08-31T08:08:42;95668.56;;;16.09;69.18
58092;BME280;43896;48.178;11.578;2023-08-31T08:11:08;95665.28;;;16.56;68.49
58092;BME280;43896;48.178;11.578;2023-08-31T08:13:33;95670.03;;;16.80;66.45
58092;BME280;43896;48.178;11.578;2023-08-31T08:15:58;95674.78;;;16.92;67.08
58092;BME280;43896;48.178;11.578;2023-08-31T08:18:23;95681.09;;;16.84;67.29
58092;BME280;43896;48.178;11.578;2023-08-31T08:20:51;95690.19;;;16.61;67.55
58092;BME280;43896;48.178;11.578;2023-08-31T08:23:17;95692.28;;;16.18;67.71
58092;BME280;43896;48.178;11.578;2023-08-31T08:25:42;95698.59;;;16.65;65.27
58092;BME280;43896;48.178;11.578;2023-08-31T08:28:07;95703.91;;;16.72;64.87
58092;BME280;43896;48.178;11.578;2023-08-31T08:30:33;95709.13;;;16.03;67.25
58092;BME280;43896;48.178;11.578;2023-08-31T08:32:58;95708.34;;;16.51;65.67
58092;BME280;43896;48.178;11.578;2023-08-31T08:35:24;95704.91;;;16.64;64.36
58092;BME280;43896;48.178;11.578;2023-08-31T08:37:49;95711.06;;;16.71;63.33
58092;BME280;43896;48.178;11.578;2023-08-31T08:40:14;95714.31;;;16.66;63.26
58092;BME280;43896;48.178;11.578;2023-08-31T08:42:43;95715.38;;;16.79;63.09
58092;BME280;43896;48.178;11.578;2023-08-31T08:45:12;95712.56;;;16.87;63.05
58092;BME280;43896;48.178;11.578;2023-08-31T08:47:40;95717.69;;;16.89;64.82
58092;BME280;43896;48.178;11.578;2023-08-31T08:50:06;95715.16;;;16.74;64.84
58092;BME280;43896;48.178;11.578;2023-08-31T08:52:31;95711.16;;;16.98;63.04
58092;BME280;43896;48.178;11.578;2023-08-31T08:54:56;95709.56;;;17.17;63.24
58092;BME280;43896;48.178;11.578;2023-08-31T08:57:22;95707.34;;;16.59;65.51
58092;BME280;43896;48.178;11.578;2023-08-31T08:59:47;95707.72;;;17.17;62.99
58092;BME280;43896;48.178;11.578;2023-08-31T09:02:13;95713.28;;;17.49;60.16
58092;BME280;43896;48.178;11.578;2023-08-31T09:04:38;95690.97;;;17.37;60.34
58092;BME280;43896;48.178;11.578;2023-08-31T09:07:03;95709.78;;;17.42;59.75
58092;BME280;43896;48.178;11.578;2023-08-31T09:09:29;95719.41;;;17.23;61.39
58092;BME280;43896;48.178;11.578;2023-08-31T09:11:54;95725.25;;;16.98;62.07
58092;BME280;43896;48.178;11.578;2023-08-31T09:14:21;95726.09;;;16.99;61.11
58092;BME280;43896;48.178;11.578;2023-08-31T09:16:47;95727.50;;;17.01;62.04
58092;BME280;43896;48.178;11.578;2023-08-31T09:21:44;95738.19;;;17.21;61.18
58092;BME280;43896;48.178;11.578;2023-08-31T09:24:11;95734.31;;;17.24;60.55
58092;BME280;43896;48.178;11.578;2023-08-31T09:26:37;95735.34;;;17.23;60.42
58092;BME280;43896;48.178;11.578;2023-08-31T09:29:04;95736.56;;;17.27;61.34
58092;BME280;43896;48.178;11.578;2023-08-31T09:31:29;95730.44;;;17.27;60.96
58092;BME280;43896;48.178;11.578;2023-08-31T09:33:55;95734.72;;;17.28;60.91
58092;BME280;43896;48.178;11.578;2023-08-31T09:36:21;95735.53;;;17.21;61.30
58092;BME280;43896;48.178;11.578;2023-08-31T09:38:47;95730.44;;;17.33;62.24
58092;BME280;43896;48.178;11.578;2023-08-31T09:41:13;95726.34;;;17.37;61.55
58092;BME280;43896;48.178;11.578;2023-08-31T09:43:38;95734.91;;;17.33;61.87
58092;BME280;43896;48.178;11.578;2023-08-31T09:46:04;95729.41;;;17.28;61.79
58092;BME280;43896;48.178;11.578;2023-08-31T09:48:29;95733.13;;;17.47;61.07
58092;BME280;43896;48.178;11.578;2023-08-31T09:50:55;95729.81;;;17.44;60.35
58092;BME280;43896;48.178;11.578;2023-08-31T09:53:21;95729.81;;;17.44;61.07
58092;BME280;43896;48.178;11.578;2023-08-31T09:55:48;95730.22;;;17.28;61.85
58092;BME280;43896;48.178;11.578;2023-08-31T09:58:16;95725.50;;;17.23;62.17
58092;BME280;43896;48.178;11.578;2023-08-31T10:00:42;95733.50;;;17.37;61.33
58092;BME280;43896;48.178;11.578;2023-08-31T10:03:08;95732.47;;;17.38;62.11
58092;BME280;43896;48.178;11.578;2023-08-31T10:05:33;95717.56;;;17.43;60.68
58092;BME280;43896;48.178;11.578;2023-08-31T10:07:59;95724.47;;;17.11;62.06
58092;BME280;43896;48.178;11.578;2023-08-31T10:10:25;95723.47;;;17.25;61.05
58092;BME280;43896;48.178;11.578;2023-08-31T10:12:51;95723.69;;;17.31;60.40
58092;BME280;43896;48.178;11.578;2023-08-31T10:15:17;95725.94;;;17.34;60.58
58092;BME280;43896;48.178;11.578;2023-08-31T10:17:43;95723.66;;;17.04;61.62
58092;BME280;43896;48.178;11.578;2023-08-31T10:20:09;95715.31;;;17.40;60.39
58092;BME280;43896;48.178;11.578;2023-08-31T10:22:36;95717.16;;;17.60;60.52
58092;BME280;43896;48.178;11.578;2023-08-31T10:25:02;95717.97;;;17.74;60.55
58092;BME280;43896;48.178;11.578;2023-08-31T10:32:46;95715.53;;;17.66;60.47
58092;BME280;43896;48.178;11.578;2023-08-31T10:35:12;95712.84;;;17.79;59.90
58092;BME280;43896;48.178;11.578;2023-08-31T10:37:39;95717.75;;;17.69;59.78
58092;BME280;43896;48.178;11.578;2023-08-31T10:40:08;95712.81;;;17.05;61.08
58092;BME280;43896;48.178;11.578;2023-08-31T10:42:41;95714.50;;;17.40;60.56
58092;BME280;43896;48.178;11.578;2023-08-31T10:45:06;95724.13;;;17.81;58.13
58092;BME280;43896;48.178;11.578;2023-08-31T10:47:38;95722.88;;;17.97;57.88
58092;BME280;43896;48.178;11.578;2023-08-31T10:50:21;95719.16;;;18.11;58.20
58092;BME280;43896;48.178;11.578;2023-08-31T10:52:46;95725.13;;;18.00;60.57
58092;BME280;43896;48.178;11.578;2023-08-31T10:55:11;95718.84;;;16.79;61.99
58092;BME280;43896;48.178;11.578;2023-08-31T10:57:37;95721.38;;;16.04;64.46
58092;BME280;43896;48.178;11.578;2023-08-31T11:00:04;95745.06;;;16.89;64.00
58092;BME280;43896;48.178;11.578;2023-08-31T11:02:42;95735.25;;;16.41;68.44
58092;BME280;43896;48.178;11.578;2023-08-31T11:07:33;95753.03;;;15.56;75.49
58092;BME280;43896;48.178;11.578;2023-08-31T11:10:09;95753.50;;;15.88;77.72
58092;BME280;43896;48.178;11.578;2023-08-31T11:12:35;95747.22;;;17.47;72.20
58092;BME280;43896;48.178;11.578;2023-08-31T11:15:00;95748.19;;;17.06;74.21
58092;BME280;43896;48.178;11.578;2023-08-31T11:17:27;95740.84;;;16.60;71.84
58092;BME280;43896;48.178;11.578;2023-08-31T11:19:52;95750.66;;;17.28;69.11
58092;BME280;43896;48.178;11.578;2023-08-31T11:22:18;95738.03;;;17.96;70.00
58092;BME280;43896;48.178;11.578;2023-08-31T11:24:43;95734.63;;;18.48;70.29
58092;BME280;43896;48.178;11.578;2023-08-31T11:27:08;95728.50;;;18.41;65.33
58092;BME280;43896;48.178;11.578;2023-08-31T11:29:38;95733.50;;;17.23;66.65
58092;BME280;43896;48.178;11.578;2023-08-31T11:32:04;95736.34;;;17.02;68.31
58092;BME280;43896;48.178;11.578;2023-08-31T11:34:29;95744.34;;;17.69;66.93
58092;BME280;43896;48.178;11.578;2023-08-31T11:36:54;95739.25;;;17.60;66.81
58092;BME280;43896;48.178;11.578;2023-08-31T11:39:20;95739.16;;;18.41;66.27
58092;BME280;43896;48.178;11.578;2023-08-31T11:41:45;95744.13;;;18.17;64.75
58092;BME280;43896;48.178;11.578;2023-08-31T11:44:11;95741.41;;;18.44;59.66
58092;BME280;43896;48.178;11.578;2023-08-31T11:46:37;95745.75;;;18.25;61.09
58092;BME280;43896;48.178;11.578;2023-08-31T11:49:03;95742.72;;;18.08;62.09
58092;BME280;43896;48.178;11.578;2023-08-31T11:51:32;95751.13;;;17.65;64.00
58092;BME280;43896;48.178;11.578;2023-08-31T11:53:59;95751.16;;;17.91;62.35
58092;BME280;43896;48.178;11.578;2023-08-31T11:56:24;95760.09;;;18.17;60.76
58092;BME280;43896;48.178;11.578;2023-08-31T11:58:50;95756.00;;;18.21;61.69
58092;BME280;43896;48.178;11.578;2023-08-31T12:01:22;95742.09;;;17.79;62.97
58092;BME280;43896;48.178;11.578;2023-08-31T12:03:48;95747.66;;;17.97;60.86
58092;BME280;43896;48.178;11.578;2023-08-31T12:06:16;95749.84;;;18.27;60.59
58092;BME280;43896;48.178;11.578;2023-08-31T12:08:45;95747.81;;;18.95;59.20
58092;BME280;43896;48.178;11.578;2023-08-31T12:11:10;95755.50;;;18.51;60.09
58092;BME280;43896;48.178;11.578;2023-08-31T12:13:36;95758.22;;;18.96;58.03
58092;BME280;43896;48.178;11.578;2023-08-31T12:16:01;95752.56;;;18.72;58.12
58092;BME280;43896;48.178;11.578;2023-08-31T12:18:29;95756.31;;;19.42;54.70
58092;BME280;43896;48.178;11.578;2023-08-31T12:20:55;95767.59;;;20.45;52.21
58092;BME280;43896;48.178;11.578;2023-08-31T12:23:20;95751.13;;;20.85;48.96
58092;BME280;43896;48.178;11.578;2023-08-31T12:25:48;95743.56;;;21.42;49.30
58092;BME280;43896;48.178;11.578;2023-08-31T12:28:14;95756.13;;;21.84;47.12
58092;BME280;43896;48.178;11.578;2023-08-31T12:30:41;95744.47;;;21.90;46.59
58092;BME280;43896;48.178;11.578;2023-08-31T12:33:07;95749.72;;;22.20;47.72
58092;BME280;43896;48.178;11.578;2023-08-31T12:35:32;95748.56;;;22.16;46.25
58092;BME280;43896;48.178;11.578;2023-08-31T12:37:57;95754.06;;;22.33;46.10
58092;BME280;43896;48.178;11.578;2023-08-31T12:40:22;95741.44;;;22.57;44.77
58092;BME280;43896;48.178;11.578;2023-08-31T12:42:48;95749.25;;;22.23;45.48
58092;BME280;43896;48.178;11.578;2023-08-31T12:45:13;95752.19;;;21.14;47.53
58092;BME280;43896;48.178;11.578;2023-08-31T12:47:38;95751.47;;;20.88;48.13
58092;BME280;43896;48.178;11.578;2023-08-31T12:50:04;95744.66;;;20.55;49.82
58092;BME280;43896;48.178;11.578;2023-08-31T12:52:29;95751.34;;;20.65;49.12
58092;BME280;43896;48.178;11.578;2023-08-31T12:54:54;95748.88;;;20.45;49.92
58092;BME280;43896;48.178;11.578;2023-08-31T12:57:19;95752.81;;;20.23;50.69
58092;BME280;43896;48.178;11.578;2023-08-31T12:59:44;95747.28;;;20.00;51.06
58092;BME280;43896;48.178;11.578;2023-08-31T13:02:10;95749.09;;;19.17;53.80
58092;BME280;43896;48.178;11.578;2023-08-31T13:04:37;95758.22;;;19.35;52.35
58092;BME280;43896;48.178;11.578;2023-08-31T13:07:02;95758.06;;;19.29;53.08
58092;BME280;43896;48.178;11.578;2023-08-31T13:09:28;95755.22;;;18.79;54.54
58092;BME280;43896;48.178;11.578;2023-08-31T13:11:53;95763.38;;;18.19;56.55
58092;BME280;43896;48.178;11.578;2023-08-31T13:14:18;95768.34;;;19.26;54.53
58092;BME280;43896;48.178;11.578;2023-08-31T13:16:43;95761.88;;;19.72;51.57
58092;BME280;43896;48.178;11.578;2023-08-31T13:19:09;95769.69;;;19.67;50.49
58092;BME280;43896;48.178;11.578;2023-08-31T13:21:34;95768.47;;;20.38;47.83
58092;BME280;43896;48.178;11.578;2023-08-31T13:23:59;95760.00;;;19.41;50.20
58092;BME280;43896;48.178;11.578;2023-08-31T13:26:25;95764.69;;;20.28;47.20
58092;BME280;43896;48.178;11.578;2023-08-31T13:28:51;95756.31;;;20.98;47.18
58092;BME280;43896;48.178;11.578;2023-08-31T13:31:16;95770.19;;;21.37;44.45
58092;BME280;43896;48.178;11.578;2023-08-31T13:33:41;95767.94;;;21.64;43.39
58092;BME280;43896;48.178;11.578;2023-08-31T13:36:07;95765.53;;;21.98;42.69
58092;BME280;43896;48.178;11.578;2023-08-31T13:38:34;95758.38;;;21.26;45.39
58092;BME280;43896;48.178;11.578;2023-08-31T13:40:59;95756.13;;;22.07;43.25
58092;BME280;43896;48.178;11.578;2023-08-31T13:43:25;95762.25;;;21.30;44.65
58092;BME280;43896;48.178;11.578;2023-08-31T13:45:50;95764.13;;;20.63;45.80
58092;BME280;43896;48.178;11.578;2023-08-31T13:48:16;95762.25;;;20.45;45.17
58092;BME280;43896;48.178;11.578;2023-08-31T13:50:41;95759.50;;;20.33;45.11
58092;BME280;43896;48.178;11.578;2023-08-31T13:53:06;95763.50;;;20.60;45.07
58092;BME280;43896;48.178;11.578;2023-08-31T13:55:31;95753.38;;;21.18;43.89
58092;BME280;43896;48.178;11.578;2023-08-31T13:58:03;95751.56;;;21.30;44.18
58092;BME280;43896;48.178;11.578;2023-08-31T14:00:28;95744.81;;;21.40;43.12
58092;BME280;43896;48.178;11.578;2023-08-31T14:02:54;95743.66;;;22.01;42.06
58092;BME280;43896;48.178;11.578;2023-08-31T14:05:19;95741.09;;;21.95;42.39
58092;BME280;43896;48.178;11.578;2023-08-31T14:07:44;95740.50;;;21.81;44.50
58092;BME280;43896;48.178;11.578;2023-08-31T14:10:10;95739.47;;;21.40;46.06
58092;BME280;43896;48.178;11.578;2023-08-31T14:12:35;95740.97;;;21.78;45.47
58092;BME280;43896;48.178;11.578;2023-08-31T14:15:01;95738.31;;;21.35;45.49
58092;BME280;43896;48.178;11.578;2023-08-31T14:17:28;95733.03;;;21.29;44.25
58092;BME280;43896;48.178;11.578;2023-08-31T14:19:54;95737.81;;;20.22;46.36
58092;BME280;43896;48.178;11.578;2023-08-31T14:22:19;95739.06;;;20.20;46.72
58092;BME280;43896;48.178;11.578;2023-08-31T14:24:44;95738.06;;;19.14;50.34
58092;BME280;43896;48.178;11.578;2023-08-31T14:27:10;95736.94;;;19.60;48.89
58092;BME280;43896;48.178;11.578;2023-08-31T14:29:36;95735.59;;;19.44;49.55
58092;BME280;43896;48.178;11.578;2023-08-31T14:32:01;95751.31;;;18.82;50.68
58092;BME280;43896;48.178;11.578;2023-08-31T14:34:27;95741.38;;;19.02;49.66
58092;BME280;43896;48.178;11.578;2023-08-31T14:36:52;95743.78;;;19.17;49.70
58092;BME280;43896;48.178;11.578;2023-08-31T14:39:22;95742.47;;;19.58;48.66
58092;BME280;43896;48.178;11.578;2023-08-31T14:41:48;95731.22;;;19.81;48.20
58092;BME280;43896;48.178;11.578;2023-08-31T14:44:13;95739.94;;;19.95;47.15
58092;BME280;43896;48.178;11.578;2023-08-31T14:46:39;95737.69;;;19.92;47.90
58092;BME280;43896;48.178;11.578;2023-08-31T14:49:05;95744.44;;;19.44;49.32
58092;BME280;43896;48.178;11.578;2023-08-31T14:51:31;95736.63;;;19.43;48.76
58092;BME280;43896;48.178;11.578;2023-08-31T14:53:57;95733.47;;;19.84;47.73
58092;BME280;43896;48.178;11.578;2023-08-31T14:56:22;95735.38;;;19.77;46.36
58092;BME280;43896;48.178;11.578;2023-08-31T14:58:47;95744.56;;;19.81;46.94
58092;BME280;43896;48.178;11.578;2023-08-31T15:01:12;95748.53;;;19.72;47.67
58092;BME280;43896;48.178;11.578;2023-08-31T15:03:37;95754.88;;;19.71;47.27
58092;BME280;43896;48.178;11.578;2023-08-31T15:06:03;95751.66;;;19.62;47.75
58092;BME280;43896;48.178;11.578;2023-08-31T15:08:35;95755.69;;;19.46;49.10
58092;BME280;43896;48.178;11.578;2023-08-31T15:11:01;95760.97;;;19.53;46.64
58092;BME280;43896;48.178;11.578;2023-08-31T15:13:27;95756.88;;;19.51;46.35
58092;BME280;43896;48.178;11.578;2023-08-31T15:15:52;95759.13;;;19.54;47.67
58092;BME280;43896;48.178;11.578;2023-08-31T15:18:17;95765.13;;;19.10;50.50
58092;BME280;43896;48.178;11.578;2023-08-31T15:20:43;95765.00;;;19.30;48.12
58092;BME280;43896;48.178;11.578;2023-08-31T15:23:08;95770.28;;;19.37;49.22